createdAt,value
2023-03-16T00:00:54.009Z,58.50
2023-03-16T00:03:20.878Z,57.30
2023-03-16T00:05:48.184Z,57.63
2023-03-16T00:08:15.815Z,57.72
2023-03-16T00:10:44.377Z,57.39
2023-03-16T00:13:11.979Z,57.72
2023-03-16T00:15:38.565Z,56.51
2023-03-16T00:18:05.141Z,54.86
2023-03-16T00:20:32.744Z,55.49
2023-03-16T00:22:59.211Z,55.07
2023-03-16T00:25:25.638Z,55.86
2023-03-16T00:27:52.022Z,55.48
2023-03-16T00:30:20.097Z,55.99
2023-03-16T00:32:46.793Z,55.94
2023-03-16T00:35:13.195Z,55.35
2023-03-16T00:37:39.934Z,55.54
2023-03-16T00:40:06.385Z,55.91
2023-03-16T00:42:32.799Z,56.73
2023-03-16T00:44:59.254Z,56.97
2023-03-16T00:47:25.687Z,56.12
2023-03-16T00:49:52.093Z,57.08
2023-03-16T00:52:18.485Z,56.37
2023-03-16T00:54:44.898Z,56.68
2023-03-16T00:57:11.574Z,56.41
2023-03-16T00:59:38.170Z,56.98
2023-03-16T01:02:05.753Z,56.32
2023-03-16T01:04:32.196Z,57.17
2023-03-16T01:06:58.630Z,57.21
2023-03-16T01:09:25.034Z,56.10
2023-03-16T01:11:53.137Z,56.63
2023-03-16T01:14:19.715Z,57.71
2023-03-16T01:16:46.350Z,57.26
2023-03-16T01:19:13.908Z,57.65
2023-03-16T01:21:40.353Z,57.98
2023-03-16T01:24:06.747Z,56.60
2023-03-16T01:26:33.160Z,56.64
2023-03-16T01:29:00.325Z,57.16
2023-03-16T01:31:26.740Z,56.77
2023-03-16T01:33:53.495Z,56.69
2023-03-16T01:36:20.096Z,56.66
2023-03-16T01:38:46.668Z,57.42
2023-03-16T01:41:13.117Z,57.88
2023-03-16T01:43:39.523Z,57.62
2023-03-16T01:46:05.982Z,57.82
2023-03-16T01:48:32.444Z,58.48
2023-03-16T01:50:58.842Z,57.86
2023-03-16T01:53:26.238Z,57.98
2023-03-16T01:55:54.845Z,58.27
2023-03-16T01:58:21.411Z,58.27
2023-03-16T02:00:50.005Z,58.40
2023-03-16T02:03:18.604Z,58.57
2023-03-16T02:05:46.202Z,59.36
2023-03-16T02:08:12.793Z,58.69
2023-03-16T02:10:39.219Z,59.69
2023-03-16T02:13:05.646Z,60.00
2023-03-16T02:15:32.617Z,58.41
2023-03-16T02:18:00.187Z,59.09
2023-03-16T02:20:27.947Z,59.22
2023-03-16T02:22:55.318Z,58.43
2023-03-16T02:25:22.905Z,58.96
2023-03-16T02:27:50.508Z,58.65
2023-03-16T02:30:16.933Z,58.27
2023-03-16T02:32:43.442Z,58.35
2023-03-16T02:35:09.940Z,58.65
2023-03-16T02:37:36.371Z,59.32
2023-03-16T02:40:02.766Z,59.50
2023-03-16T02:42:30.019Z,60.43
2023-03-16T02:44:56.610Z,60.63
2023-03-16T02:47:23.027Z,60.38
2023-03-16T02:49:49.784Z,60.24
2023-03-16T02:52:16.382Z,59.61
2023-03-16T02:54:43.960Z,60.06
2023-03-16T02:57:11.553Z,59.87
2023-03-16T02:59:39.190Z,60.00
2023-03-16T03:02:05.767Z,59.34
2023-03-16T03:04:32.339Z,59.48
2023-03-16T03:06:58.791Z,59.81
2023-03-16T03:09:25.173Z,58.93
2023-03-16T03:11:51.575Z,58.92
2023-03-16T03:14:18.011Z,59.30
2023-03-16T03:16:45.480Z,58.72
2023-03-16T03:19:12.902Z,59.65
2023-03-16T03:21:39.308Z,59.32
2023-03-16T03:24:06.103Z,58.44
2023-03-16T03:26:32.533Z,58.99
2023-03-16T03:28:59.271Z,59.73
2023-03-16T03:31:25.695Z,59.31
2023-03-16T03:33:52.181Z,59.65
2023-03-16T03:36:18.552Z,60.74
2023-03-16T03:38:44.949Z,60.61
2023-03-16T03:41:11.332Z,61.51
2023-03-16T03:43:38.777Z,61.59
2023-03-16T03:46:05.390Z,60.86
2023-03-16T03:48:32.957Z,60.58
2023-03-16T03:51:01.535Z,60.07
2023-03-16T03:53:30.129Z,60.18
2023-03-16T03:55:56.548Z,60.40
2023-03-16T03:58:22.972Z,60.31
2023-03-16T04:00:49.907Z,60.84
2023-03-16T04:03:16.613Z,60.29
2023-03-16T04:05:43.126Z,60.02
2023-03-16T04:08:09.581Z,60.40
2023-03-16T04:10:36.005Z,60.58
2023-03-16T04:13:02.409Z,60.37
2023-03-16T04:15:29.456Z,60.59
2023-03-16T04:17:56.027Z,60.84
2023-03-16T04:20:23.708Z,60.07
2023-03-16T04:22:50.136Z,61.99
2023-03-16T04:25:16.570Z,63.49
2023-03-16T04:27:42.996Z,63.64
2023-03-16T04:30:09.457Z,63.95
2023-03-16T04:32:35.973Z,63.05
2023-03-16T04:35:02.437Z,62.43
2023-03-16T04:37:28.915Z,61.41
2023-03-16T04:39:55.315Z,61.84
2023-03-16T04:42:21.806Z,61.03
2023-03-16T04:44:49.452Z,61.29
2023-03-16T04:47:15.890Z,60.67
2023-03-16T04:49:42.290Z,60.49
2023-03-16T04:52:08.777Z,60.86
2023-03-16T04:54:35.238Z,60.61
2023-03-16T04:57:01.644Z,61.43
2023-03-16T04:59:28.055Z,61.04
2023-03-16T05:01:54.591Z,60.63
2023-03-16T05:04:21.328Z,60.06
2023-03-16T05:06:47.768Z,60.45
2023-03-16T05:09:14.209Z,60.55
2023-03-16T05:11:40.627Z,60.78
2023-03-16T05:14:07.072Z,60.98
2023-03-16T05:16:34.267Z,60.52
2023-03-16T05:19:00.659Z,60.55
2023-03-16T05:21:27.448Z,60.25
2023-03-16T05:23:55.048Z,60.59
2023-03-16T05:26:21.654Z,60.24
2023-03-16T05:28:48.053Z,59.77
2023-03-16T05:31:14.924Z,60.25
2023-03-16T05:33:42.450Z,60.11
2023-03-16T05:36:08.913Z,60.21
2023-03-16T05:38:35.401Z,60.40
2023-03-16T05:41:03.857Z,59.66
2023-03-16T05:43:32.807Z,59.97
2023-03-16T05:45:59.197Z,60.42
2023-03-16T05:48:25.607Z,61.05
2023-03-16T05:50:52.625Z,60.67
2023-03-16T05:53:20.205Z,60.30
2023-03-16T05:55:47.768Z,59.99
2023-03-16T05:58:14.488Z,60.17
2023-03-16T06:00:40.925Z,60.46
2023-03-16T06:03:07.406Z,59.83
2023-03-16T06:05:33.876Z,61.00
2023-03-16T06:08:00.337Z,59.80
2023-03-16T06:10:27.139Z,59.91
2023-03-16T06:12:54.003Z,59.41
2023-03-16T06:15:20.608Z,59.28
2023-03-16T06:17:47.185Z,59.31
2023-03-16T06:20:13.661Z,58.79
2023-03-16T06:22:40.130Z,58.95
2023-03-16T06:25:06.971Z,59.11
2023-03-16T06:27:34.592Z,58.49
2023-03-16T06:30:02.268Z,57.59
2023-03-16T06:32:29.788Z,58.29
2023-03-16T06:34:57.363Z,57.83
2023-03-16T06:37:24.070Z,58.00
2023-03-16T06:39:50.526Z,58.27
2023-03-16T06:42:16.944Z,57.38
2023-03-16T06:44:43.382Z,56.76
2023-03-16T06:47:10.524Z,56.30
2023-03-16T06:49:37.309Z,57.80
2023-03-16T06:52:03.736Z,57.07
2023-03-16T06:54:30.306Z,57.68
2023-03-16T06:56:57.902Z,56.90
2023-03-16T06:59:24.496Z,56.84
2023-03-16T07:01:51.066Z,56.14
2023-03-16T07:04:17.497Z,57.15
2023-03-16T07:06:44.378Z,58.70
2023-03-16T07:09:11.996Z,58.97
2023-03-16T07:11:38.720Z,59.15
2023-03-16T07:14:05.204Z,59.07
2023-03-16T07:16:32.781Z,58.59
2023-03-16T07:18:59.235Z,58.23
2023-03-16T07:21:25.641Z,58.59
2023-03-16T07:23:52.612Z,58.24
2023-03-16T07:26:20.190Z,58.71
2023-03-16T07:28:48.763Z,59.17
2023-03-16T07:31:16.398Z,59.47
2023-03-16T07:33:43.046Z,59.33
2023-03-16T07:36:10.708Z,59.40
2023-03-16T07:38:37.822Z,59.67
2023-03-16T07:41:04.235Z,59.21
2023-03-16T07:43:30.706Z,59.67
2023-03-16T07:45:57.980Z,60.72
2023-03-16T07:48:24.379Z,61.41
2023-03-16T07:50:50.826Z,61.11
2023-03-16T07:53:17.259Z,62.30
2023-03-16T07:55:43.684Z,61.34
2023-03-16T07:58:10.886Z,62.65
2023-03-16T08:00:38.433Z,63.33
2023-03-16T08:03:05.012Z,62.58
2023-03-16T08:05:31.430Z,62.26
2023-03-16T08:07:57.938Z,62.45
2023-03-16T08:10:24.358Z,62.16
2023-03-16T08:12:50.984Z,63.97
2023-03-16T08:15:17.466Z,64.23
2023-03-16T08:17:43.939Z,64.91
2023-03-16T08:20:10.391Z,64.68
2023-03-16T08:22:36.820Z,67.58
2023-03-16T08:25:03.211Z,67.91
2023-03-16T08:27:29.638Z,67.03
2023-03-16T08:29:56.072Z,67.08
2023-03-16T08:32:23.069Z,66.63
2023-03-16T08:34:49.480Z,66.82
2023-03-16T08:37:16.266Z,65.88
2023-03-16T08:39:43.879Z,64.92
2023-03-16T08:42:12.466Z,65.40
2023-03-16T08:44:39.027Z,65.71
2023-03-16T08:47:05.816Z,64.62
2023-03-16T08:49:33.244Z,64.27
2023-03-16T08:52:00.153Z,63.83
2023-03-16T08:54:27.389Z,63.53
2023-03-16T08:56:53.972Z,64.03
2023-03-16T08:59:29.883Z,64.16
2023-03-16T09:01:57.332Z,61.86
2023-03-16T09:04:23.905Z,61.57
2023-03-16T09:07:05.726Z,59.24
2023-03-16T09:09:34.219Z,58.92
2023-03-16T09:12:01.632Z,58.26
2023-03-16T09:14:28.211Z,57.84
2023-03-16T09:16:55.814Z,56.68
2023-03-16T09:19:23.387Z,56.76
2023-03-16T09:21:49.823Z,55.53
2023-03-16T09:24:16.649Z,56.13
2023-03-16T09:26:45.285Z,56.26
2023-03-16T09:29:12.218Z,57.85
2023-03-16T09:31:38.787Z,56.68
2023-03-16T09:34:05.231Z,56.33
2023-03-16T09:36:31.638Z,56.73
2023-03-16T09:38:58.069Z,55.77
2023-03-16T09:41:24.487Z,56.15
2023-03-16T09:43:50.882Z,56.38
2023-03-16T09:46:17.419Z,57.66
2023-03-16T09:48:43.871Z,55.73
2023-03-16T09:51:10.360Z,56.31
2023-03-16T09:53:37.686Z,55.72
2023-03-16T09:56:04.093Z,55.01
2023-03-16T09:58:30.635Z,53.99
2023-03-16T10:00:57.085Z,53.65
2023-03-16T10:03:23.488Z,53.96
2023-03-16T10:05:49.894Z,54.24
2023-03-16T10:08:16.274Z,53.23
2023-03-16T10:10:42.703Z,52.91
2023-03-16T10:13:09.114Z,52.80
2023-03-16T10:15:35.522Z,53.06
2023-03-16T10:18:02.303Z,55.00
2023-03-16T10:20:29.020Z,53.36
2023-03-16T10:22:55.794Z,54.46
2023-03-16T10:25:22.374Z,53.15
2023-03-16T10:27:48.811Z,53.11
2023-03-16T10:30:15.242Z,52.65
2023-03-16T10:32:42.132Z,52.43
2023-03-16T10:35:08.564Z,52.82
2023-03-16T10:37:35.308Z,52.21
2023-03-16T10:40:01.895Z,53.49
2023-03-16T10:42:28.292Z,53.07
2023-03-16T10:44:55.090Z,53.20
2023-03-16T10:47:21.718Z,52.81
2023-03-16T10:49:48.144Z,52.56
2023-03-16T10:52:14.546Z,52.46
2023-03-16T10:54:40.944Z,51.07
2023-03-16T10:57:07.355Z,51.39
2023-03-16T10:59:33.767Z,50.69
2023-03-16T11:02:00.176Z,52.04
2023-03-16T11:04:26.633Z,51.03
2023-03-16T11:06:53.443Z,49.80
2023-03-16T11:09:19.850Z,50.51
2023-03-16T11:11:46.246Z,48.82
2023-03-16T11:14:12.762Z,48.81
2023-03-16T11:16:39.352Z,46.66
2023-03-16T11:19:05.790Z,49.15
2023-03-16T11:21:32.210Z,49.32
2023-03-16T11:23:58.609Z,48.01
2023-03-16T11:26:24.997Z,47.32
2023-03-16T11:28:51.410Z,48.13
2023-03-16T11:31:17.849Z,47.13
2023-03-16T11:33:44.274Z,48.22
2023-03-16T11:36:10.677Z,45.92
2023-03-16T11:38:38.054Z,46.58
2023-03-16T11:41:04.477Z,47.15
2023-03-16T11:43:30.896Z,44.65
2023-03-16T11:45:57.407Z,46.82
2023-03-16T11:48:23.826Z,47.38
2023-03-16T11:50:50.257Z,46.27
2023-03-16T11:53:16.639Z,46.28
2023-03-16T11:55:43.044Z,45.88
2023-03-16T11:58:09.767Z,47.04
2023-03-16T12:00:36.228Z,47.26
2023-03-16T12:03:02.740Z,45.82
2023-03-16T12:05:29.286Z,45.14
2023-03-16T12:07:55.836Z,44.62
2023-03-16T12:10:22.297Z,45.23
2023-03-16T12:12:48.753Z,45.94
2023-03-16T12:15:15.146Z,44.02
2023-03-16T12:17:41.566Z,46.14
2023-03-16T12:20:07.988Z,47.17
2023-03-16T12:22:34.408Z,44.68
2023-03-16T12:25:00.816Z,47.65
2023-03-16T12:27:27.206Z,47.93
2023-03-16T12:29:53.635Z,47.20
2023-03-16T12:32:20.080Z,48.19
2023-03-16T12:34:46.593Z,45.74
2023-03-16T12:37:13.223Z,45.76
2023-03-16T12:39:39.716Z,46.91
2023-03-16T12:42:06.370Z,47.26
2023-03-16T12:44:32.990Z,46.67
2023-03-16T12:46:59.406Z,46.59
2023-03-16T12:49:25.814Z,46.99
2023-03-16T12:51:52.232Z,47.54
2023-03-16T12:54:18.603Z,46.69
2023-03-16T12:56:45.023Z,45.87
2023-03-16T12:59:11.427Z,46.36
2023-03-16T13:01:37.980Z,44.97
2023-03-16T13:04:04.444Z,44.18
2023-03-16T13:06:30.871Z,43.12
2023-03-16T13:08:57.275Z,43.99
2023-03-16T13:11:23.723Z,43.65
2023-03-16T13:13:50.148Z,46.56
2023-03-16T13:16:16.576Z,46.02
2023-03-16T13:18:43.092Z,45.57
2023-03-16T13:21:09.534Z,44.66
2023-03-16T13:23:37.602Z,43.75
2023-03-16T13:26:05.036Z,45.16
2023-03-16T13:28:31.614Z,45.86
2023-03-16T13:30:58.099Z,45.54
2023-03-16T13:33:24.524Z,46.73
2023-03-16T13:35:51.034Z,46.83
2023-03-16T13:38:17.561Z,47.05
2023-03-16T13:40:43.966Z,45.74
2023-03-16T13:43:11.192Z,47.55
2023-03-16T13:45:37.643Z,46.30
2023-03-16T13:48:04.107Z,45.18
2023-03-16T13:50:31.324Z,46.73
2023-03-16T13:52:57.883Z,45.85
2023-03-16T13:55:24.300Z,46.36
2023-03-16T13:57:50.928Z,48.16
2023-03-16T14:00:17.339Z,47.20
2023-03-16T14:02:44.059Z,44.89
2023-03-16T14:05:10.592Z,44.71
2023-03-16T14:07:37.000Z,46.02
2023-03-16T14:10:03.407Z,44.22
2023-03-16T14:12:30.277Z,44.48
2023-03-16T14:14:56.861Z,43.84
2023-03-16T14:17:24.453Z,42.36
2023-03-16T14:19:51.053Z,43.93
2023-03-16T14:22:17.503Z,44.46
2023-03-16T14:24:44.253Z,42.21
2023-03-16T14:27:10.835Z,42.71
2023-03-16T14:29:37.265Z,42.66
2023-03-16T14:32:03.984Z,42.81
2023-03-16T14:34:31.571Z,43.29
2023-03-16T14:36:58.172Z,42.71
2023-03-16T14:39:24.727Z,43.74
2023-03-16T14:41:51.350Z,42.36
2023-03-16T14:44:18.777Z,43.01
2023-03-16T14:46:45.565Z,42.90
2023-03-16T14:49:14.159Z,43.70
2023-03-16T14:51:41.778Z,43.64
2023-03-16T14:54:10.381Z,43.32
2023-03-16T14:56:37.951Z,42.22
2023-03-16T14:59:05.550Z,42.88
2023-03-16T15:01:32.484Z,42.71
2023-03-16T15:03:59.714Z,42.59
2023-03-16T15:06:26.315Z,42.95
2023-03-16T15:08:53.897Z,41.37
2023-03-16T15:11:20.494Z,41.41
2023-03-16T15:13:47.138Z,41.99
2023-03-16T15:16:13.608Z,41.95
2023-03-16T15:18:40.267Z,41.12
2023-03-16T15:21:06.686Z,41.79
2023-03-16T15:23:33.445Z,40.76
2023-03-16T15:25:59.842Z,41.89
2023-03-16T15:28:27.615Z,41.36
2023-03-16T15:30:54.062Z,40.94
2023-03-16T15:33:20.808Z,42.89
2023-03-16T15:35:49.564Z,43.82
2023-03-16T15:38:16.121Z,45.65
2023-03-16T15:40:42.564Z,47.42
2023-03-16T15:43:09.026Z,45.11
2023-03-16T15:45:35.734Z,45.30
2023-03-16T15:48:02.346Z,46.20
2023-03-16T15:50:30.129Z,46.30
2023-03-16T15:52:57.508Z,44.66
2023-03-16T15:55:25.144Z,45.47
2023-03-16T15:57:53.680Z,46.76
2023-03-16T16:00:20.118Z,44.51
2023-03-16T16:02:46.512Z,43.55
2023-03-16T16:05:12.946Z,44.90
2023-03-16T16:07:39.362Z,44.90
2023-03-16T16:10:06.623Z,43.46
2023-03-16T16:12:34.258Z,44.01
2023-03-16T16:15:00.850Z,44.23
2023-03-16T16:17:43.980Z,44.10
2023-03-16T16:20:14.040Z,44.04
2023-03-16T16:22:40.711Z,44.05
2023-03-16T16:25:07.708Z,44.05
2023-03-16T16:27:34.151Z,43.90
2023-03-16T16:30:00.748Z,45.07
2023-03-16T16:32:27.621Z,44.46
2023-03-16T16:35:03.873Z,44.11
2023-03-16T16:37:31.826Z,45.22
2023-03-16T16:39:58.223Z,45.59
2023-03-16T16:42:25.330Z,46.32
2023-03-16T16:44:51.742Z,45.46
2023-03-16T16:47:18.189Z,48.08
2023-03-16T16:49:44.630Z,46.92
2023-03-16T16:52:12.187Z,47.31
2023-03-16T16:54:38.658Z,47.16
2023-03-16T16:57:05.103Z,46.17
2023-03-16T16:59:31.534Z,46.80
2023-03-16T17:01:57.950Z,46.41
2023-03-16T17:04:25.110Z,46.68
2023-03-16T17:07:04.799Z,46.64
2023-03-16T17:09:31.517Z,46.49
2023-03-16T17:11:57.956Z,47.06
2023-03-16T17:14:24.775Z,47.36
2023-03-16T17:16:51.255Z,46.72
2023-03-16T17:19:18.003Z,47.09
2023-03-16T17:21:44.803Z,46.82
2023-03-16T17:24:11.638Z,47.92
2023-03-16T17:26:39.054Z,47.49
2023-03-16T17:29:05.929Z,48.18
2023-03-16T17:31:33.040Z,48.37
2023-03-16T17:34:00.095Z,48.38
2023-03-16T17:36:27.689Z,47.66
2023-03-16T17:38:54.206Z,48.39
2023-03-16T17:41:20.906Z,48.69
2023-03-16T17:43:47.344Z,49.14
2023-03-16T17:46:17.210Z,49.95
2023-03-16T17:48:44.754Z,50.57
2023-03-16T17:51:11.176Z,50.48
2023-03-16T17:53:37.553Z,51.02
2023-03-16T17:56:04.012Z,51.75
2023-03-16T17:58:31.142Z,52.27
2023-03-16T18:00:57.733Z,53.00
2023-03-16T18:03:24.327Z,53.55
2023-03-16T18:05:50.790Z,53.78
2023-03-16T18:08:17.205Z,54.19
2023-03-16T18:10:44.123Z,53.98
2023-03-16T18:13:10.772Z,53.90
2023-03-16T18:15:37.407Z,53.58
2023-03-16T18:18:03.847Z,53.52
2023-03-16T18:20:30.866Z,54.14
2023-03-16T18:22:57.479Z,54.49
2023-03-16T18:25:23.941Z,54.67
2023-03-16T18:27:50.319Z,54.58
2023-03-16T18:30:16.752Z,54.06
2023-03-16T18:32:43.172Z,54.08
2023-03-16T18:35:09.600Z,54.11
2023-03-16T18:37:36.047Z,54.56
2023-03-16T18:40:02.513Z,54.76
2023-03-16T18:42:28.933Z,55.03
2023-03-16T18:44:55.366Z,55.08
2023-03-16T18:47:22.211Z,55.03
2023-03-16T18:49:48.746Z,54.91
2023-03-16T18:52:15.237Z,54.89
2023-03-16T18:54:42.738Z,54.87
2023-03-16T18:57:09.648Z,55.24
2023-03-16T18:59:36.089Z,55.63
2023-03-16T19:02:02.754Z,55.34
2023-03-16T19:04:29.446Z,55.32
2023-03-16T19:06:56.287Z,54.96
2023-03-16T19:09:22.736Z,55.29
2023-03-16T19:11:49.205Z,55.50
2023-03-16T19:14:16.032Z,55.81
2023-03-16T19:16:42.648Z,55.62
2023-03-16T19:19:09.150Z,55.95
2023-03-16T19:21:35.740Z,56.43
2023-03-16T19:24:02.138Z,56.45
2023-03-16T19:26:28.552Z,56.31
2023-03-16T19:28:54.945Z,56.86
2023-03-16T19:31:21.410Z,56.89
2023-03-16T19:33:47.850Z,56.80
2023-03-16T19:36:14.290Z,56.22
2023-03-16T19:38:40.684Z,55.98
2023-03-16T19:41:07.105Z,56.17
2023-03-16T19:43:33.527Z,56.06
2023-03-16T19:46:00.725Z,55.72
2023-03-16T19:48:27.189Z,56.24
2023-03-16T19:50:53.859Z,56.69
2023-03-16T19:53:20.442Z,56.33
2023-03-16T19:55:47.270Z,56.03
2023-03-16T19:58:14.825Z,56.05
2023-03-16T20:00:42.277Z,56.04
2023-03-16T20:03:08.852Z,56.37
2023-03-16T20:05:35.304Z,57.04
2023-03-16T20:08:01.751Z,56.85
2023-03-16T20:10:28.789Z,57.38
2023-03-16T20:12:56.318Z,56.98
2023-03-16T20:15:23.091Z,56.96
2023-03-16T20:17:50.671Z,57.11
2023-03-16T20:20:19.293Z,57.25
2023-03-16T20:22:46.018Z,57.34
2023-03-16T20:25:12.857Z,58.03
2023-03-16T20:27:39.327Z,57.71
2023-03-16T20:30:05.770Z,58.47
2023-03-16T20:32:33.445Z,58.14
2023-03-16T20:35:02.414Z,58.10
2023-03-16T20:37:29.735Z,58.00
2023-03-16T20:39:58.302Z,58.09
2023-03-16T20:42:26.896Z,58.37
2023-03-16T20:44:53.755Z,57.51
2023-03-16T20:47:20.199Z,57.92
2023-03-16T20:49:46.689Z,58.17
2023-03-16T20:52:14.258Z,57.54
2023-03-16T20:54:40.826Z,58.45
2023-03-16T20:57:08.425Z,58.25
2023-03-16T20:59:34.976Z,58.54
2023-03-16T21:02:01.695Z,59.02
2023-03-16T21:04:29.319Z,58.78
2023-03-16T21:06:57.083Z,58.61
2023-03-16T21:09:24.574Z,58.22
2023-03-16T21:11:52.190Z,57.78
2023-03-16T21:14:19.785Z,57.32
2023-03-16T21:16:47.369Z,58.30
2023-03-16T21:19:15.991Z,58.71
2023-03-16T21:21:42.544Z,58.56
2023-03-16T21:24:10.128Z,59.39
2023-03-16T21:26:37.733Z,59.70
2023-03-16T21:29:05.329Z,59.67
2023-03-16T21:31:31.929Z,59.98
2023-03-16T21:33:59.501Z,59.61
2023-03-16T21:36:28.093Z,60.17
2023-03-16T21:38:54.676Z,60.75
2023-03-16T21:41:21.262Z,60.33
2023-03-16T21:43:48.029Z,59.99
2023-03-16T21:46:15.621Z,60.11
2023-03-16T21:48:43.204Z,58.90
2023-03-16T21:51:12.306Z,59.22
2023-03-16T21:53:38.902Z,59.01
2023-03-16T21:56:05.339Z,58.78
2023-03-16T21:58:31.797Z,58.97
2023-03-16T22:00:59.200Z,58.65
2023-03-16T22:03:29.618Z,58.66
2023-03-16T22:06:00.426Z,58.06
2023-03-16T22:08:29.029Z,57.20
2023-03-16T22:10:55.618Z,57.51
2023-03-16T22:13:23.237Z,57.48
2023-03-16T22:15:50.873Z,57.17
2023-03-16T22:18:17.387Z,56.99
2023-03-16T22:20:45.011Z,57.09
2023-03-16T22:23:13.649Z,57.35
2023-03-16T22:25:41.266Z,56.89
2023-03-16T22:28:07.857Z,56.71
2023-03-16T22:30:34.522Z,57.38
2023-03-16T22:33:02.316Z,57.34
2023-03-16T22:35:29.941Z,57.88
2023-03-16T22:37:57.343Z,57.33
2023-03-16T22:40:24.307Z,57.08
2023-03-16T22:42:50.717Z,56.77
2023-03-16T22:45:18.115Z,57.30
2023-03-16T22:47:44.724Z,56.66
2023-03-16T22:50:11.144Z,56.79
2023-03-16T22:52:37.586Z,57.58
2023-03-16T22:55:04.037Z,58.04
2023-03-16T22:57:30.453Z,57.06
2023-03-16T22:59:56.894Z,57.05
2023-03-16T23:02:24.303Z,57.03
2023-03-16T23:04:52.063Z,56.66
2023-03-16T23:07:19.511Z,55.95
2023-03-16T23:09:46.406Z,56.36
2023-03-16T23:12:13.696Z,57.10
2023-03-16T23:14:40.285Z,56.72
2023-03-16T23:17:08.847Z,57.09
2023-03-16T23:19:35.476Z,56.95
2023-03-16T23:22:01.971Z,57.09
2023-03-16T23:24:28.399Z,57.69
2023-03-16T23:26:55.309Z,59.14
2023-03-16T23:29:22.879Z,59.03
2023-03-16T23:31:50.561Z,59.34
2023-03-16T23:34:19.134Z,60.43
2023-03-16T23:36:45.736Z,59.88
2023-03-16T23:39:13.327Z,59.03
2023-03-16T23:41:41.918Z,58.59
2023-03-16T23:44:08.510Z,58.97
2023-03-16T23:46:34.990Z,58.58
2023-03-16T23:49:01.441Z,57.86
2023-03-16T23:51:28.347Z,57.93
2023-03-16T23:53:55.952Z,57.47
2023-03-16T23:56:23.557Z,57.93
2023-03-16T23:58:51.159Z,58.00
